Time;durP1;ratioP1;P1;durP2;ratioP2;P2;SDS_P1;SDS_P2;PMS_P1;PMS_P2;Temp;Humidity;BMP_temperature;BMP_pressure;BME280_temperature;BME280_humidity;BME280_pressure;Samples;Min_cycle;Max_cycle;Signal;HPM_P1;HPM_P2
2023/04/01 00:00:29;;;;;;;5.40;1.20;;;10.20;87.20;;;;;;5026076;28;20065;-68
2023/04/01 00:03:02;;;;;;;4.68;1.10;;;10.20;87.20;;;;;;5016329;28;20565;-68
2023/04/01 00:05:35;;;;;;;4.60;1.02;;;10.20;87.30;;;;;;5028259;28;20048;-67
2023/04/01 00:08:08;;;;;;;5.18;1.65;;;10.20;87.40;;;;;;4998138;28;20527;-67
2023/04/01 00:10:41;;;;;;;4.57;1.23;;;10.20;87.30;;;;;;5019487;28;20179;-67
2023/04/01 00:13:15;;;;;;;3.03;0.90;;;10.20;87.10;;;;;;5035910;28;20135;-68
2023/04/01 00:15:50;;;;;;;7.03;0.95;;;10.30;87.00;;;;;;5037614;28;20484;-67
2023/04/01 00:18:24;;;;;;;4.63;1.00;;;10.20;87.00;;;;;;5036016;28;20088;-67
2023/04/01 00:20:58;;;;;;;3.42;0.75;;;10.20;87.10;;;;;;5037882;28;20056;-68
2023/04/01 00:23:31;;;;;;;3.88;0.68;;;10.30;87.10;;;;;;5031078;28;20107;-67
2023/04/01 00:26:05;;;;;;;2.53;0.85;;;10.20;87.20;;;;;;5037594;28;20055;-67
2023/04/01 00:28:40;;;;;;;3.83;0.77;;;10.20;87.30;;;;;;5034445;28;20053;-67
2023/04/01 00:31:16;;;;;;;4.40;0.82;;;10.10;87.20;;;;;;5014906;28;20044;-66
2023/04/01 00:33:42;;;;;;;2.72;0.80;;;10.10;87.30;;;;;;5035135;28;20038;-68
2023/04/01 00:36:18;;;;;;;3.97;1.10;;;10.10;87.10;;;;;;5034142;28;20053;-67
2023/04/01 00:38:52;;;;;;;4.28;0.98;;;10.10;87.20;;;;;;5034603;28;20071;-66
2023/04/01 00:41:27;;;;;;;5.90;1.20;;;10.10;87.30;;;;;;5036327;28;20048;-67
2023/04/01 00:44:17;;;;;;;4.40;1.10;;;10.10;87.30;;;;;;5037215;28;20068;-67
2023/04/01 00:46:53;;;;;;;4.38;0.90;;;10.10;87.20;;;;;;5015649;28;20492;-67
2023/04/01 00:49:30;;;;;;;4.63;0.82;;;10.20;87.10;;;;;;5029514;28;20076;-66
2023/04/01 00:52:06;;;;;;;4.88;1.40;;;10.20;87.20;;;;;;5018273;28;20051;-66
2023/04/01 00:54:42;;;;;;;2.63;0.73;;;10.10;87.10;;;;;;5015880;28;20068;-68
2023/04/01 00:57:22;;;;;;;5.70;0.88;;;10.10;86.90;;;;;;5031092;28;20053;-68
2023/04/01 01:00:03;;;;;;;3.38;1.00;;;10.10;86.90;;;;;;5017412;28;20052;-68
2023/04/01 01:02:41;;;;;;;3.83;0.80;;;10.10;86.90;;;;;;5032539;28;20040;-68
2023/04/01 01:05:16;;;;;;;5.57;0.90;;;10.10;87.00;;;;;;5029443;28;20103;-67
2023/04/01 01:07:59;;;;;;;3.25;0.75;;;10.10;86.70;;;;;;5035546;28;20080;-68
2023/04/01 01:10:34;;;;;;;4.20;0.80;;;10.10;86.70;;;;;;5015263;28;20123;-67
2023/04/01 01:13:16;;;;;;;3.47;0.65;;;10.10;86.80;;;;;;5035766;28;20083;-67
2023/04/01 01:15:57;;;;;;;3.85;0.70;;;10.10;86.90;;;;;;5035537;28;20045;-67
2023/04/01 01:18:36;;;;;;;3.25;0.65;;;10.10;86.60;;;;;;5034009;28;20124;-68
2023/04/01 01:21:33;;;;;;;3.17;0.60;;;10.10;86.60;;;;;;5036579;28;20119;-68
2023/04/01 01:24:37;;;;;;;3.00;0.65;;;10.10;86.50;;;;;;5036260;28;20064;-68
2023/04/01 01:27:12;;;;;;;2.40;0.70;;;10.10;86.40;;;;;;5016271;28;20041;-67
2023/04/01 01:30:17;;;;;;;2.85;0.75;;;10.10;86.10;;;;;;5033723;28;20048;-68
2023/04/01 01:33:02;;;;;;;4.80;0.90;;;10.10;86.10;;;;;;5018892;28;20479;-68
2023/04/01 01:35:41;;;;;;;2.28;0.57;;;10.10;86.10;;;;;;5035161;28;20067;-67
2023/04/01 01:38:22;;;;;;;1.63;0.57;;;10.10;85.90;;;;;;5015965;28;20432;-68
2023/04/01 01:41:07;;;;;;;3.70;0.73;;;10.10;85.80;;;;;;5015994;28;20068;-68
2023/04/01 01:43:44;;;;;;;2.08;0.55;;;10.10;85.70;;;;;;5016055;28;20057;-67
2023/04/01 01:46:22;;;;;;;5.28;0.70;;;10.10;85.70;;;;;;5005343;28;20133;-69
2023/04/01 01:48:58;;;;;;;2.92;0.50;;;10.10;85.80;;;;;;5014374;28;20054;-67
2023/04/01 01:51:33;;;;;;;2.42;0.73;;;10.10;85.90;;;;;;5035174;28;20099;-68
2023/04/01 01:54:14;;;;;;;3.80;0.50;;;10.10;85.80;;;;;;5021111;28;20056;-67
2023/04/01 01:56:52;;;;;;;5.43;0.82;;;10.10;85.90;;;;;;5018814;28;20049;-66
2023/04/01 01:59:33;;;;;;;6.47;0.90;;;10.10;86.20;;;;;;5006798;28;20038;-67
2023/04/01 02:02:10;;;;;;;2.17;0.75;;;10.10;85.90;;;;;;4992398;28;20050;-66
2023/04/01 02:04:46;;;;;;;4.18;0.90;;;10.00;85.90;;;;;;5014332;28;20129;-68
2023/04/01 02:07:25;;;;;;;2.28;0.60;;;10.00;86.10;;;;;;5011956;28;20049;-66
2023/04/01 02:09:59;;;;;;;3.28;0.90;;;10.00;86.20;;;;;;5012067;28;20247;-67
2023/04/01 02:12:50;;;;;;;3.25;0.70;;;10.00;86.10;;;;;;4999041;28;20273;-68
2023/04/01 02:15:32;;;;;;;2.83;0.65;;;10.00;86.30;;;;;;4982555;28;20108;-67
2023/04/01 02:18:06;;;;;;;3.90;1.00;;;10.00;86.30;;;;;;4996984;28;20053;-67
2023/04/01 02:20:40;;;;;;;2.15;0.63;;;10.00;86.30;;;;;;5014760;28;20634;-66
2023/04/01 02:23:15;;;;;;;1.67;0.63;;;9.90;86.50;;;;;;4998014;28;20137;-67
2023/04/01 02:25:48;;;;;;;1.80;0.50;;;9.90;86.40;;;;;;5010861;28;20060;-64
2023/04/01 02:28:24;;;;;;;3.22;0.73;;;9.90;86.50;;;;;;4996824;28;20532;-66
2023/04/01 02:31:02;;;;;;;3.13;0.68;;;9.90;86.50;;;;;;4985265;28;20073;-66
2023/04/01 02:33:35;;;;;;;3.13;0.52;;;9.90;86.50;;;;;;5004629;28;20053;-67
2023/04/01 02:36:13;;;;;;;5.97;0.60;;;9.90;86.30;;;;;;5009598;28;20413;-67
2023/04/01 02:38:50;;;;;;;2.65;0.63;;;9.90;86.30;;;;;;4995922;28;20066;-68
2023/04/01 02:41:24;;;;;;;1.85;0.60;;;9.90;86.30;;;;;;5014077;28;20046;-67
2023/04/01 02:43:59;;;;;;;3.50;0.55;;;9.90;86.30;;;;;;5012585;28;20030;-67
2023/04/01 02:46:32;;;;;;;2.78;0.50;;;9.90;86.20;;;;;;4996032;28;20052;-67
2023/04/01 02:49:06;;;;;;;3.65;0.70;;;9.90;86.20;;;;;;4999532;28;20050;-67
2023/04/01 02:51:40;;;;;;;4.55;0.70;;;9.80;86.20;;;;;;5000431;28;20081;-68
2023/04/01 02:54:14;;;;;;;4.85;0.80;;;9.90;86.00;;;;;;4988658;28;20054;-68
2023/04/01 02:56:48;;;;;;;3.03;0.63;;;9.90;86.10;;;;;;4992560;28;20050;-67
2023/04/01 02:59:29;;;;;;;2.47;0.65;;;9.90;86.10;;;;;;5004008;28;20041;-66
2023/04/01 03:02:02;;;;;;;2.53;0.50;;;9.90;86.00;;;;;;5014827;28;20115;-67
2023/04/01 03:04:36;;;;;;;5.45;0.90;;;9.90;86.20;;;;;;5029489;28;20083;-67
2023/04/01 03:07:10;;;;;;;2.72;0.60;;;9.90;86.20;;;;;;5030177;28;20389;-67
2023/04/01 03:09:45;;;;;;;2.50;0.57;;;9.90;86.10;;;;;;5026336;28;20135;-67
2023/04/01 03:12:19;;;;;;;4.00;0.60;;;9.90;86.00;;;;;;4998736;28;20067;-67
2023/04/01 03:14:52;;;;;;;2.55;0.60;;;9.90;85.80;;;;;;5028789;28;20037;-67
2023/04/01 03:17:26;;;;;;;1.75;0.73;;;9.90;85.70;;;;;;5026317;28;20053;-67
2023/04/01 03:19:59;;;;;;;2.65;0.70;;;9.90;85.70;;;;;;5026170;28;20399;-67
2023/04/01 03:22:32;;;;;;;2.70;0.52;;;9.80;85.70;;;;;;5012410;28;20117;-67
2023/04/01 03:25:08;;;;;;;3.42;0.85;;;9.90;85.60;;;;;;5027899;28;20077;-66
2023/04/01 03:27:41;;;;;;;4.57;0.50;;;9.90;85.80;;;;;;5027144;28;20049;-66
2023/04/01 03:30:14;;;;;;;5.00;0.77;;;9.80;85.90;;;;;;5013633;28;20348;-67
2023/04/01 03:32:51;;;;;;;3.05;0.45;;;9.80;85.90;;;;;;5011694;28;20615;-67
2023/04/01 03:35:25;;;;;;;1.83;0.47;;;9.80;85.70;;;;;;5010327;28;20506;-67
2023/04/01 03:37:58;;;;;;;4.32;0.63;;;9.90;85.70;;;;;;5027874;28;20065;-67
2023/04/01 03:40:27;;;;;;;3.75;0.60;;;9.80;85.80;;;;;;5003100;28;20057;-67
2023/04/01 03:43:00;;;;;;;3.05;0.90;;;9.80;85.90;;;;;;5012827;28;20139;-66
2023/04/01 03:45:34;;;;;;;1.58;0.38;;;9.80;85.80;;;;;;5031936;28;20073;-67
2023/04/01 03:48:01;;;;;;;5.22;0.60;;;9.80;85.90;;;;;;5037228;28;20053;-67
2023/04/01 03:50:35;;;;;;;3.88;0.63;;;9.80;85.90;;;;;;5030743;28;20045;-67
2023/04/01 03:53:09;;;;;;;5.28;0.75;;;9.90;85.90;;;;;;5009601;28;20061;-66
2023/04/01 03:55:47;;;;;;;6.75;0.50;;;9.80;85.90;;;;;;5034633;28;20047;-65
2023/04/01 03:58:27;;;;;;;4.47;0.75;;;9.80;86.00;;;;;;5029717;28;20136;-68
2023/04/01 04:01:17;;;;;;;3.70;0.50;;;9.80;85.90;;;;;;4994610;28;20053;-68
2023/04/01 04:03:55;;;;;;;5.45;1.02;;;9.80;86.10;;;;;;4994037;28;20045;-67
2023/04/01 04:06:28;;;;;;;3.42;0.77;;;9.70;86.30;;;;;;5014906;28;20068;-65
2023/04/01 04:09:02;;;;;;;2.17;0.60;;;9.70;86.20;;;;;;5013714;28;20408;-67
2023/04/01 04:11:36;;;;;;;3.13;0.70;;;9.80;86.40;;;;;;4996368;28;20136;-66
2023/04/01 04:14:10;;;;;;;4.82;0.60;;;9.70;86.50;;;;;;5009624;28;20296;-68
2023/04/01 04:16:43;;;;;;;5.22;0.80;;;9.70;86.50;;;;;;4996666;28;20592;-68
2023/04/01 04:19:17;;;;;;;3.92;1.15;;;9.70;86.60;;;;;;5000018;28;20315;-67
2023/04/01 04:21:50;;;;;;;2.40;0.52;;;9.70;86.60;;;;;;5009385;28;20064;-68
2023/04/01 04:24:24;;;;;;;4.90;0.57;;;9.70;86.60;;;;;;5016619;28;20417;-67
2023/04/01 04:27:08;;;;;;;3.33;0.95;;;9.70;86.80;;;;;;4996124;28;20119;-65
2023/04/01 04:29:51;;;;;;;5.32;0.70;;;9.70;86.70;;;;;;5001298;28;20489;-68
2023/04/01 04:32:26;;;;;;;3.08;0.70;;;9.70;86.60;;;;;;5011637;28;20076;-66
2023/04/01 04:34:59;;;;;;;3.25;0.52;;;9.70;86.90;;;;;;5014430;28;20701;-67
2023/04/01 04:37:26;;;;;;;3.22;0.60;;;9.70;86.80;;;;;;5019095;28;20543;-68
2023/04/01 04:40:00;;;;;;;3.83;0.77;;;9.70;86.90;;;;;;5008581;28;20069;-67
2023/04/01 04:42:35;;;;;;;2.50;0.55;;;9.70;87.10;;;;;;5030567;28;20145;-68
2023/04/01 04:45:12;;;;;;;5.03;0.88;;;9.70;87.20;;;;;;5011654;28;20053;-67
2023/04/01 04:47:54;;;;;;;3.22;0.60;;;9.70;87.10;;;;;;5002199;28;20052;-67
2023/04/01 04:50:28;;;;;;;3.75;0.70;;;9.60;87.30;;;;;;4992778;28;20112;-67
2023/04/01 04:53:02;;;;;;;3.38;0.65;;;9.70;87.10;;;;;;4995476;28;20470;-68
2023/04/01 04:55:36;;;;;;;2.22;0.40;;;9.60;87.10;;;;;;4993860;28;20060;-66
2023/04/01 04:58:37;;;;;;;2.53;0.63;;;9.70;87.10;;;;;;5010677;28;20068;-66
2023/04/01 05:01:23;;;;;;;;;;;9.70;87.20;;;;;;4992926;28;20042;-67
2023/04/01 05:03:57;;;;;;;1.95;0.40;;;9.70;87.40;;;;;;5012233;28;19975;-67
2023/04/01 05:06:31;;;;;;;2.10;0.50;;;9.60;87.30;;;;;;5014330;28;20052;-67
2023/04/01 05:09:04;;;;;;;2.30;0.40;;;9.70;87.00;;;;;;4996382;28;20057;-66
2023/04/01 05:11:38;;;;;;;3.90;0.73;;;9.70;86.90;;;;;;4991742;28;20693;-68
2023/04/01 05:14:15;;;;;;;2.40;0.43;;;9.70;86.90;;;;;;4996937;28;20672;-67
2023/04/01 05:16:56;;;;;;;2.13;0.70;;;9.70;87.00;;;;;;4993818;28;20086;-67
2023/04/01 05:19:29;;;;;;;6.30;0.75;;;9.70;87.00;;;;;;4993843;28;20053;-66
2023/04/01 05:22:03;;;;;;;3.28;1.00;;;9.60;86.90;;;;;;5010979;28;20873;-65
2023/04/01 05:24:36;;;;;;;4.15;0.75;;;9.70;86.80;;;;;;4996979;28;20136;-66
2023/04/01 05:27:11;;;;;;;3.55;0.80;;;9.70;87.00;;;;;;5008754;28;20049;-67
2023/04/01 05:29:46;;;;;;;5.35;0.80;;;9.60;87.00;;;;;;4993643;28;20128;-67
2023/04/01 05:32:37;;;;;;;2.38;0.50;;;9.70;87.00;;;;;;4997382;28;20119;-67
2023/04/01 05:35:12;;;;;;;4.50;0.60;;;9.70;87.30;;;;;;5009313;28;20496;-68
2023/04/01 05:37:45;;;;;;;1.75;0.60;;;9.70;87.00;;;;;;4995884;28;20129;-67
2023/04/01 05:40:18;;;;;;;3.28;0.65;;;9.70;87.00;;;;;;4997626;28;20638;-67
2023/04/01 05:42:52;;;;;;;3.05;0.68;;;9.70;87.00;;;;;;5016253;28;20128;-68
2023/04/01 05:45:27;;;;;;;3.35;0.82;;;9.60;87.10;;;;;;5011023;28;20155;-67
2023/04/01 05:48:12;;;;;;;4.03;0.70;;;9.70;87.10;;;;;;5011497;28;20064;-66
2023/04/01 05:50:45;;;;;;;3.72;0.90;;;9.70;87.00;;;;;;5013513;28;20728;-67
2023/04/01 05:53:20;;;;;;;4.45;1.05;;;9.70;86.90;;;;;;4994668;28;20046;-67
2023/04/01 05:55:54;;;;;;;0.77;0.30;;;9.70;86.90;;;;;;5009365;28;20045;-66
2023/04/01 05:58:27;;;;;;;3.55;0.60;;;9.70;86.90;;;;;;5016019;28;20056;-68
2023/04/01 06:01:11;;;;;;;2.88;0.40;;;9.70;86.80;;;;;;5002017;28;20111;-66
2023/04/01 06:03:46;;;;;;;3.33;0.60;;;9.70;86.90;;;;;;5010618;28;20052;-67
2023/04/01 06:06:15;;;;;;;1.67;0.40;;;9.70;86.90;;;;;;5030617;28;20041;-67
2023/04/01 06:08:50;;;;;;;2.42;0.60;;;9.70;86.80;;;;;;5019373;28;20056;-67
2023/04/01 06:11:33;;;;;;;3.85;0.88;;;9.70;86.70;;;;;;5001375;28;20052;-66
2023/04/01 06:14:18;;;;;;;6.88;0.90;;;9.70;86.90;;;;;;5033475;28;20416;-67
2023/04/01 06:17:05;;;;;;;;;;;9.60;86.70;;;;;;5014712;28;20057;-67
2023/04/01 06:19:47;;;;;;;1.98;0.30;;;9.70;86.80;;;;;;5030515;28;19925;-67
2023/04/01 06:22:46;;;;;;;2.92;0.60;;;9.70;86.70;;;;;;5001234;28;20460;-67
2023/04/01 06:25:47;;;;;;;4.18;0.60;;;9.70;86.70;;;;;;5003542;28;20416;-67
2023/04/01 06:28:59;;;;;;;3.00;0.70;;;9.70;86.70;;;;;;5002692;28;20049;-68
2023/04/01 06:31:51;;;;;;;2.05;0.60;;;9.70;86.80;;;;;;4996821;28;20071;-67
2023/04/01 06:34:43;;;;;;;2.40;0.60;;;9.70;86.80;;;;;;5000382;28;20496;-65
2023/04/01 06:37:36;;;;;;;2.45;0.82;;;9.70;86.80;;;;;;5032939;28;20048;-66
2023/04/01 06:40:26;;;;;;;3.33;0.45;;;9.70;86.90;;;;;;5015355;28;20050;-67
2023/04/01 06:43:09;;;;;;;1.92;0.50;;;9.70;86.80;;;;;;5009697;28;20085;-67
2023/04/01 06:46:10;;;;;;;1.00;0.35;;;9.70;86.90;;;;;;5032762;28;20056;-67
2023/04/01 06:49:28;;;;;;;2.05;0.50;;;9.70;87.00;;;;;;5029989;28;20053;-67
2023/04/01 06:52:27;;;;;;;2.33;0.30;;;9.70;87.00;;;;;;5031158;28;20098;-67
2023/04/01 06:55:42;;;;;;;1.83;0.40;;;9.70;87.00;;;;;;4949637;28;20046;-67
2023/04/01 06:58:22;;;;;;;1.48;0.50;;;9.70;87.00;;;;;;5021513;28;20396;-68
2023/04/01 07:01:05;;;;;;;1.85;0.40;;;9.70;86.90;;;;;;5014249;28;20057;-68
2023/04/01 07:03:44;;;;;;;2.40;0.50;;;9.80;86.90;;;;;;5013707;28;20054;-68
2023/04/01 07:06:27;;;;;;;2.17;0.70;;;9.70;87.00;;;;;;5000036;28;20136;-67
2023/04/01 07:09:09;;;;;;;3.10;0.68;;;9.80;87.00;;;;;;5013086;28;20053;-67
2023/04/01 07:12:34;;;;;;;1.97;0.40;;;9.70;87.20;;;;;;5033747;28;20586;-67
2023/04/01 07:15:32;;;;;;;2.58;0.47;;;9.70;87.10;;;;;;5027282;28;20088;-67
2023/04/01 07:18:13;;;;;;;1.63;0.43;;;9.70;87.60;;;;;;5021798;28;20377;-66
2023/04/01 07:20:47;;;;;;;2.08;0.40;;;9.70;87.80;;;;;;5041048;28;20092;-66
2023/04/01 07:23:25;;;;;;;3.65;0.75;;;9.70;87.60;;;;;;5022370;28;20064;-67
2023/04/01 07:26:27;;;;;;;2.88;0.50;;;9.70;87.60;;;;;;5017698;28;20049;-68
2023/04/01 07:29:23;;;;;;;1.95;0.43;;;9.80;87.50;;;;;;5022445;28;20055;-67
2023/04/01 07:32:17;;;;;;;1.60;0.47;;;9.80;87.50;;;;;;5017400;28;20048;-66
2023/04/01 07:35:04;;;;;;;3.75;0.75;;;9.80;87.60;;;;;;5033107;28;20049;-68
2023/04/01 07:37:46;;;;;;;6.53;1.40;;;9.80;87.20;;;;;;5023929;28;20049;-67
2023/04/01 07:40:31;;;;;;;3.97;1.35;;;9.80;87.40;;;;;;5017201;28;20041;-67
2023/04/01 07:43:25;;;;;;;3.42;1.02;;;9.90;87.60;;;;;;5015762;28;20053;-66
2023/04/01 07:46:22;;;;;;;3.42;0.80;;;9.90;87.50;;;;;;5014519;28;20049;-67
2023/04/01 07:49:02;;;;;;;3.30;0.95;;;9.90;87.40;;;;;;5017867;28;20041;-67
2023/04/01 07:51:44;;;;;;;2.88;0.90;;;9.90;87.90;;;;;;5011734;28;20707;-67
2023/04/01 07:54:25;;;;;;;3.90;0.90;;;9.90;88.00;;;;;;5032980;28;20049;-68
2023/04/01 07:57:05;;;;;;;2.80;0.68;;;9.90;88.20;;;;;;5033877;28;20052;-67
2023/04/01 08:00:04;;;;;;;1.50;0.52;;;9.90;88.20;;;;;;4993332;28;20080;-66
2023/04/01 08:03:22;;;;;;;2.80;0.80;;;9.90;87.60;;;;;;4986627;28;20401;-69
2023/04/01 08:05:59;;;;;;;2.90;0.60;;;10.00;87.90;;;;;;4994269;28;20382;-69
2023/04/01 08:08:44;;;;;;;2.13;0.50;;;10.00;87.70;;;;;;5012525;28;20062;-70
2023/04/01 08:11:54;;;;;;;1.58;0.55;;;10.00;88.20;;;;;;5010615;28;20053;-68
2023/04/01 08:14:59;;;;;;;3.22;1.30;;;10.00;87.70;;;;;;5015278;28;20053;-70
2023/04/01 08:17:44;;;;;;;3.45;1.13;;;10.00;87.80;;;;;;5008677;28;20138;-69
2023/04/01 08:20:36;;;;;;;2.70;0.77;;;10.00;88.20;;;;;;4995067;28;20072;-70
2023/04/01 08:23:14;;;;;;;4.15;1.50;;;10.00;88.40;;;;;;5012809;28;20557;-68
2023/04/01 08:25:53;;;;;;;4.82;2.08;;;10.00;88.40;;;;;;4998117;28;20133;-69
2023/04/01 08:28:33;;;;;;;5.13;1.90;;;10.00;88.50;;;;;;4996148;28;20056;-68
2023/04/01 08:31:14;;;;;;;4.67;1.73;;;10.00;88.50;;;;;;4996109;28;20049;-69
2023/04/01 08:33:50;;;;;;;3.50;1.58;;;10.00;88.40;;;;;;5010269;28;20053;-68
2023/04/01 08:36:27;;;;;;;4.70;1.30;;;10.00;88.30;;;;;;5012940;28;20107;-67
2023/04/01 08:39:25;;;;;;;7.50;1.80;;;10.00;88.40;;;;;;5012124;28;20045;-71
2023/04/01 08:42:24;;;;;;;4.03;0.93;;;10.10;88.10;;;;;;5014735;28;20056;-69
2023/04/01 08:45:45;;;;;;;4.13;1.23;;;10.10;88.20;;;;;;4999260;28;20056;-69
2023/04/01 08:48:57;;;;;;;3.90;0.95;;;10.20;88.10;;;;;;5016175;28;20135;-70
2023/04/01 08:52:07;;;;;;;2.03;0.85;;;10.20;88.10;;;;;;4996535;28;20045;-70
2023/04/01 08:55:00;;;;;;;3.03;0.85;;;10.30;87.80;;;;;;4993015;28;20051;-70
2023/04/01 08:58:06;;;;;;;3.47;0.80;;;10.30;87.90;;;;;;5010145;28;20041;-69
2023/04/01 09:00:53;;;;;;;;;;;10.30;87.80;;;;;;5011123;28;20103;-68
2023/04/01 09:04:13;;;;;;;4.00;0.80;;;10.30;87.90;;;;;;5034369;28;19921;-69
2023/04/01 09:07:10;;;;;;;3.97;0.90;;;10.30;88.20;;;;;;5015088;28;20880;-70
2023/04/01 09:10:11;;;;;;;1.75;0.60;;;10.30;88.30;;;;;;5017238;28;20053;-70
2023/04/01 09:12:53;;;;;;;;;;;10.30;88.20;;;;;;5013188;28;20054;-68
2023/04/01 09:15:46;;;;;;;2.92;0.70;;;10.30;88.40;;;;;;5031523;28;19931;-68
2023/04/01 09:19:07;;;;;;;1.65;0.55;;;10.30;88.60;;;;;;5011555;28;20056;-69
2023/04/01 09:22:08;;;;;;;2.87;0.40;;;10.40;89.10;;;;;;5015033;28;20038;-69
2023/04/01 09:25:02;;;;;;;3.13;0.68;;;10.40;88.30;;;;;;5011282;28;20472;-69
2023/04/01 09:27:45;;;;;;;3.78;1.00;;;10.40;88.20;;;;;;5026755;28;20142;-68
2023/04/01 09:30:51;;;;;;;2.72;0.60;;;10.50;89.00;;;;;;5029522;28;20050;-70
2023/04/01 09:34:06;;;;;;;3.35;0.60;;;10.50;88.70;;;;;;4990125;28;20060;-69
2023/04/01 09:37:18;;;;;;;3.47;0.75;;;10.50;88.40;;;;;;5015474;28;20060;-69
2023/04/01 09:40:18;;;;;;;1.90;0.57;;;10.60;88.50;;;;;;5016934;28;20922;-69
2023/04/01 09:43:13;;;;;;;1.65;0.68;;;10.60;88.40;;;;;;5011909;28;20059;-69
2023/04/01 09:45:56;;;;;;;1.48;0.50;;;10.60;88.50;;;;;;5032843;28;20081;-68
2023/04/01 09:48:46;;;;;;;0.98;0.50;;;10.60;88.80;;;;;;5015659;28;20488;-67
2023/04/01 09:51:34;;;;;;;0.93;0.50;;;10.60;88.70;;;;;;5014952;28;20057;-68
2023/04/01 09:54:26;;;;;;;3.20;0.60;;;10.60;88.50;;;;;;5029297;28;20138;-70
2023/04/01 09:57:35;;;;;;;2.20;0.50;;;10.60;88.60;;;;;;5012914;28;20419;-70
2023/04/01 10:00:57;;;;;;;1.27;0.50;;;10.60;88.70;;;;;;5020151;28;20041;-70
2023/04/01 10:04:24;;;;;;;1.60;0.45;;;10.60;88.90;;;;;;5026569;28;20065;-70
2023/04/01 10:07:53;;;;;;;1.23;0.40;;;10.60;89.20;;;;;;4936760;28;20047;-70
2023/04/01 10:10:47;;;;;;;1.80;0.60;;;10.70;88.90;;;;;;4946380;28;20058;-70
2023/04/01 10:14:03;;;;;;;4.05;0.93;;;10.70;88.70;;;;;;5003957;28;20051;-68
2023/04/01 10:16:59;;;;;;;0.85;0.38;;;10.70;88.50;;;;;;5028273;28;20132;-69
2023/04/01 10:20:06;;;;;;;3.05;0.60;;;10.80;88.90;;;;;;5004978;28;20061;-69
2023/04/01 10:23:00;;;;;;;2.35;0.93;;;10.80;88.80;;;;;;5001557;28;20835;-69
2023/04/01 10:26:02;;;;;;;4.45;1.20;;;10.80;88.90;;;;;;5018102;28;20045;-69
2023/04/01 10:29:03;;;;;;;2.25;0.80;;;10.80;89.20;;;;;;5030713;28;20056;-70
2023/04/01 10:32:08;;;;;;;2.03;0.80;;;10.90;88.70;;;;;;5014436;28;20049;-69
2023/04/01 10:35:20;;;;;;;1.63;0.60;;;10.90;88.90;;;;;;5011303;28;20687;-69
2023/04/01 10:38:36;;;;;;;2.60;0.70;;;10.90;88.70;;;;;;5009592;28;20044;-69
2023/04/01 10:41:40;;;;;;;2.08;0.70;;;10.90;88.60;;;;;;4948780;28;20141;-69
2023/04/01 10:45:10;;;;;;;2.03;0.60;;;11.00;88.90;;;;;;5000908;28;20060;-70
2023/04/01 10:48:08;;;;;;;2.80;0.82;;;11.10;88.90;;;;;;5014922;28;20046;-70
2023/04/01 10:51:11;;;;;;;1.55;0.52;;;11.10;88.90;;;;;;5008441;28;20049;-69
2023/04/01 10:54:00;;;;;;;2.05;0.60;;;11.20;88.90;;;;;;5009906;28;20115;-69
2023/04/01 10:56:56;;;;;;;1.83;0.52;;;11.20;88.60;;;;;;5017930;28;20056;-69
2023/04/01 11:00:30;;;;;;;1.52;0.40;;;11.20;88.50;;;;;;4959321;28;20044;-69
2023/04/01 11:04:01;;;;;;;1.30;0.50;;;11.20;88.80;;;;;;5012661;28;20831;-69
2023/04/01 11:07:26;;;;;;;1.45;0.35;;;11.20;88.70;;;;;;5008591;28;20053;-69
2023/04/01 11:10:33;;;;;;;1.35;0.40;;;11.10;88.70;;;;;;4993676;28;20045;-69
2023/04/01 11:13:43;;;;;;;2.55;0.77;;;11.20;89.00;;;;;;4994817;28;20053;-69
2023/04/01 11:16:41;;;;;;;1.83;0.50;;;11.10;89.20;;;;;;4993441;28;20046;-69
2023/04/01 11:19:52;;;;;;;1.20;0.40;;;11.20;89.10;;;;;;5005300;28;20523;-69
2023/04/01 11:22:44;;;;;;;1.38;0.60;;;11.20;89.00;;;;;;4992284;28;20045;-69
2023/04/01 11:26:03;;;;;;;1.77;0.50;;;11.20;88.80;;;;;;5011777;28;20052;-70
2023/04/01 11:29:42;;;;;;;2.47;0.93;;;11.10;89.10;;;;;;4996358;28;20041;-69
2023/04/01 11:32:37;;;;;;;1.92;0.60;;;11.10;89.20;;;;;;5011691;28;20054;-69
2023/04/01 11:35:41;;;;;;;1.77;0.70;;;11.00;89.20;;;;;;4987895;28;20038;-69
2023/04/01 11:38:27;;;;;;;2.33;0.60;;;11.00;89.40;;;;;;5010442;28;20053;-69
2023/04/01 11:41:31;;;;;;;3.17;0.40;;;11.00;89.10;;;;;;5011343;28;20053;-69
2023/04/01 11:44:27;;;;;;;2.05;0.60;;;11.10;89.50;;;;;;5008159;28;20151;-68
2023/04/01 11:47:21;;;;;;;1.48;0.43;;;11.10;89.20;;;;;;5010031;28;20412;-70
2023/04/01 11:50:28;;;;;;;0.82;0.40;;;11.10;88.90;;;;;;4992385;28;20428;-68
2023/04/01 11:53:27;;;;;;;0.95;0.30;;;11.20;88.90;;;;;;4999529;28;20061;-69
2023/04/01 11:56:28;;;;;;;0.57;0.20;;;11.20;88.70;;;;;;5011260;28;20037;-69
2023/04/01 11:59:42;;;;;;;1.10;0.35;;;11.20;88.70;;;;;;5006304;28;20042;-69
2023/04/01 12:02:30;;;;;;;1.65;0.50;;;11.10;89.10;;;;;;5015664;28;20084;-69
2023/04/01 12:05:35;;;;;;;1.33;0.47;;;11.10;89.50;;;;;;4991122;28;20412;-68
2023/04/01 12:08:22;;;;;;;1.52;0.40;;;11.10;89.50;;;;;;5018834;28;20149;-70
2023/04/01 12:11:02;;;;;;;2.13;0.60;;;11.00;89.70;;;;;;5009490;28;20104;-68
2023/04/01 12:13:45;;;;;;;1.75;0.60;;;11.00;89.30;;;;;;5017357;28;20193;-68
2023/04/01 12:16:39;;;;;;;3.38;0.90;;;11.00;89.50;;;;;;5017947;28;20072;-68
2023/04/01 12:19:25;;;;;;;3.53;1.17;;;11.00;89.30;;;;;;5012626;28;20567;-70
2023/04/01 12:22:15;;;;;;;5.45;1.73;;;11.00;89.40;;;;;;5016019;28;20033;-69
2023/04/01 12:24:50;;;;;;;6.30;1.90;;;11.00;89.60;;;;;;5013091;28;20045;-68
2023/04/01 12:27:54;;;;;;;4.75;1.80;;;11.00;89.40;;;;;;5017225;28;20077;-69
2023/04/01 12:30:49;;;;;;;3.72;1.40;;;11.00;89.70;;;;;;5006902;28;20042;-69
2023/04/01 12:33:48;;;;;;;2.25;0.90;;;11.00;89.50;;;;;;4991121;28;20076;-70
2023/04/01 12:36:44;;;;;;;1.70;0.80;;;11.10;89.00;;;;;;5008579;28;20046;-69
2023/04/01 12:39:49;;;;;;;1.40;0.70;;;11.10;89.00;;;;;;5016214;28;20050;-70
2023/04/01 12:42:48;;;;;;;2.08;0.60;;;11.10;88.80;;;;;;5016481;28;20502;-70
2023/04/01 12:45:30;;;;;;;2.00;0.65;;;11.30;88.80;;;;;;5027108;28;20105;-69
2023/04/01 12:48:36;;;;;;;1.33;0.50;;;11.30;88.90;;;;;;5023475;28;20058;-69
2023/04/01 12:51:35;;;;;;;2.22;0.63;;;11.40;89.10;;;;;;5004100;28;20437;-69
2023/04/01 12:54:50;;;;;;;1.42;0.50;;;11.40;89.20;;;;;;5003380;28;20041;-69
2023/04/01 12:57:48;;;;;;;1.58;0.50;;;11.30;89.10;;;;;;5009521;28;20061;-68
2023/04/01 13:00:35;;;;;;;1.67;0.60;;;11.30;88.90;;;;;;5016234;28;20614;-70
2023/04/01 13:03:35;;;;;;;3.05;0.80;;;11.20;89.40;;;;;;5011575;28;20054;-70
2023/04/01 13:06:30;;;;;;;1.10;0.40;;;11.20;89.40;;;;;;5008985;28;20046;-68
2023/04/01 13:09:17;;;;;;;1.63;0.65;;;11.20;89.80;;;;;;5013948;28;20131;-70
2023/04/01 13:12:16;;;;;;;1.67;0.52;;;11.10;89.60;;;;;;5012699;28;20140;-69
2023/04/01 13:15:08;;;;;;;1.52;0.60;;;11.10;89.50;;;;;;5014784;28;20091;-70
2023/04/01 13:17:51;;;;;;;2.58;0.63;;;11.10;89.50;;;;;;5013972;28;20611;-70
2023/04/01 13:20:35;;;;;;;2.33;0.90;;;11.20;89.40;;;;;;5015953;28;20064;-69
2023/04/01 13:23:24;;;;;;;2.92;0.90;;;11.10;89.90;;;;;;5013404;28;20067;-69
2023/04/01 13:26:07;;;;;;;2.85;1.08;;;11.10;89.70;;;;;;5017856;28;20053;-69
2023/04/01 13:28:45;;;;;;;2.22;0.93;;;11.10;89.90;;;;;;5015966;28;20133;-70
2023/04/01 13:31:31;;;;;;;2.17;0.90;;;11.10;90.10;;;;;;5016206;28;20054;-69
2023/04/01 13:34:26;;;;;;;2.67;0.80;;;11.20;89.80;;;;;;5012348;28;20050;-69
2023/04/01 13:37:14;;;;;;;1.05;0.45;;;11.30;89.70;;;;;;5012636;28;20049;-69
2023/04/01 13:40:05;;;;;;;2.33;0.55;;;11.40;89.20;;;;;;5013194;28;20053;-69
2023/04/01 13:42:42;;;;;;;3.03;0.80;;;11.50;89.50;;;;;;4999560;28;20492;-69
2023/04/01 13:45:20;;;;;;;2.72;1.02;;;11.50;89.20;;;;;;5014506;28;20475;-71
2023/04/01 13:48:36;;;;;;;2.65;0.90;;;11.60;89.10;;;;;;4998049;28;20129;-69
2023/04/01 13:51:57;;;;;;;0.88;0.50;;;11.60;89.20;;;;;;5011431;28;20059;-70
2023/04/01 13:54:48;;;;;;;0.77;0.40;;;11.60;89.10;;;;;;4991039;28;20049;-69
2023/04/01 13:57:38;;;;;;;0.95;0.50;;;11.60;89.60;;;;;;5010035;28;20045;-70
2023/04/01 14:00:30;;;;;;;1.50;0.50;;;11.50;89.30;;;;;;5009686;28;20120;-68
2023/04/01 14:03:38;;;;;;;1.50;0.40;;;11.50;89.40;;;;;;5007176;28;20057;-69
2023/04/01 14:06:26;;;;;;;0.73;0.40;;;11.50;89.40;;;;;;5014641;28;20041;-70
2023/04/01 14:09:22;;;;;;;0.93;0.40;;;11.50;89.10;;;;;;5008504;28;20055;-70
2023/04/01 14:12:05;;;;;;;1.88;0.60;;;11.50;89.50;;;;;;5007054;28;20061;-69
2023/04/01 14:15:00;;;;;;;1.73;0.57;;;11.40;89.30;;;;;;5005103;28;20104;-68
2023/04/01 14:17:53;;;;;;;1.25;0.50;;;11.40;89.60;;;;;;5010247;28;20447;-69
2023/04/01 14:20:37;;;;;;;0.82;0.40;;;11.40;89.30;;;;;;5006298;28;20069;-69
2023/04/01 14:23:50;;;;;;;0.82;0.50;;;11.30;89.90;;;;;;5008463;28;20395;-70
2023/04/01 14:26:36;;;;;;;1.20;0.50;;;11.30;89.80;;;;;;5008998;28;20060;-69
2023/04/01 14:29:23;;;;;;;3.33;0.60;;;11.30;89.80;;;;;;5011729;28;20053;-70
2023/04/01 14:32:08;;;;;;;0.95;0.40;;;11.30;90.20;;;;;;5011098;28;20494;-69
2023/04/01 14:35:00;;;;;;;1.17;0.40;;;11.40;89.90;;;;;;5011107;28;20118;-70
2023/04/01 14:37:58;;;;;;;2.42;0.50;;;11.50;89.50;;;;;;5012258;28;20487;-70